Time;durP1;ratioP1;P1;durP2;ratioP2;P2;SDS_P1;SDS_P2;PMS_P1;PMS_P2;Temp;Humidity;BMP_temperature;BMP_pressure;BME280_temperature;BME280_humidity;BME280_pressure;Samples;Min_cycle;Max_cycle;Signal;HPM_P1;HPM_P2
2021/07/09 16:34:33;;;;;;;6.77;6.10;;;20.80;98.30;;;;;;4057667;29;20494;-81
2021/07/09 16:45:58;;;;;;;6.10;5.60;;;20.90;98.30;;;;;;4055173;29;20451;-82
2021/07/09 16:48:02;;;;;;;6.40;5.70;;;20.90;98.30;;;;;;4058530;29;20523;-82
2021/07/09 16:50:08;;;;;;;6.37;5.73;;;20.90;98.30;;;;;;4058688;29;20507;-80
2021/07/09 16:52:12;;;;;;;6.47;5.60;;;20.90;98.30;;;;;;4063457;29;20533;-82
2021/07/09 16:54:19;;;;;;;6.07;5.47;;;20.90;98.30;;;;;;4061872;29;20472;-82
2021/07/09 16:56:22;;;;;;;6.03;5.47;;;21.00;98.30;;;;;;4064929;29;20564;-82
2021/07/09 16:58:25;;;;;;;8.07;7.20;;;21.00;98.30;;;;;;4063388;29;20526;-81
2021/07/09 17:00:28;;;;;;;11.33;9.70;;;21.00;98.30;;;;;;4058261;29;20464;-81
2021/07/09 17:02:31;;;;;;;19.43;17.10;;;21.10;98.30;;;;;;4058411;29;20589;-80
2021/07/09 17:04:34;;;;;;;22.17;19.40;;;21.10;98.30;;;;;;4056928;29;20886;-80
2021/07/09 17:06:39;;;;;;;15.20;11.20;;;21.10;98.30;;;;;;4057227;29;20479;-80
2021/07/09 17:08:41;;;;;;;15.47;12.80;;;21.10;98.30;;;;;;4058231;29;20471;-83
2021/07/09 17:10:44;;;;;;;15.23;12.80;;;21.20;98.30;;;;;;4057892;29;20614;-82
2021/07/09 17:12:48;;;;;;;11.00;8.03;;;21.20;98.30;;;;;;4059048;29;20542;-81
2021/07/09 17:14:51;;;;;;;7.07;6.47;;;21.20;98.30;;;;;;4056039;29;21359;-81
2021/07/09 17:16:54;;;;;;;7.50;6.50;;;21.10;98.30;;;;;;4058686;29;20572;-83
2021/07/09 17:18:57;;;;;;;7.17;6.47;;;20.90;98.30;;;;;;4059044;29;20475;-81
2021/07/09 17:21:00;;;;;;;7.27;6.57;;;20.80;98.30;;;;;;4064017;29;20943;-81
2021/07/09 17:23:06;;;;;;;9.50;8.50;;;20.80;98.30;;;;;;4064335;29;20486;-81
2021/07/09 17:25:12;;;;;;;6.90;6.30;;;20.80;98.30;;;;;;4064033;29;20467;-81
2021/07/09 17:27:14;;;;;;;7.93;7.10;;;20.70;98.30;;;;;;4063349;29;20478;-80
2021/07/09 17:29:18;;;;;;;8.80;7.90;;;20.80;98.30;;;;;;4064100;29;20522;-81
2021/07/09 17:31:21;;;;;;;7.90;6.60;;;20.80;98.30;;;;;;4065264;29;20494;-81
2021/07/09 17:33:24;;;;;;;7.57;6.87;;;20.80;98.30;;;;;;4064789;29;20470;-82
2021/07/09 17:35:54;;;;;;;7.77;6.97;;;20.70;98.30;;;;;;4066623;29;20506;-82
2021/07/09 17:37:57;;;;;;;8.63;6.80;;;20.70;98.30;;;;;;4064487;29;20482;-83
2021/07/09 17:40:02;;;;;;;9.50;7.07;;;20.60;98.30;;;;;;4063915;29;20471;-83
2021/07/09 17:42:22;;;;;;;6.53;5.83;;;20.70;98.30;;;;;;4062393;29;20504;-81
2021/07/09 17:44:25;;;;;;;7.00;6.30;;;20.70;98.30;;;;;;4058305;29;20482;-82
2021/07/09 17:46:29;;;;;;;8.20;7.27;;;20.60;98.30;;;;;;4059742;29;20467;-82
2021/07/09 17:48:33;;;;;;;8.03;6.80;;;20.60;98.30;;;;;;4059170;29;20543;-82
2021/07/09 17:50:36;;;;;;;7.30;6.50;;;20.50;98.30;;;;;;4060435;29;20471;-82
2021/07/09 17:52:39;;;;;;;7.00;6.20;;;20.50;98.30;;;;;;4058130;29;21022;-82
2021/07/09 17:54:42;;;;;;;9.20;7.97;;;20.40;98.30;;;;;;4060700;29;20480;-82
2021/07/09 17:56:46;;;;;;;7.40;6.70;;;20.30;98.30;;;;;;4060177;29;20467;-81
2021/07/09 17:58:49;;;;;;;6.80;6.00;;;20.10;98.30;;;;;;4060636;29;20544;-82
2021/07/09 18:00:52;;;;;;;7.20;6.60;;;19.80;98.30;;;;;;4061537;29;20979;-82
2021/07/09 18:02:55;;;;;;;8.00;6.83;;;19.60;98.30;;;;;;4060832;29;20531;-82
2021/07/09 18:04:59;;;;;;;8.70;7.90;;;19.60;98.30;;;;;;4054749;29;20554;-82
2021/07/09 18:07:03;;;;;;;7.17;6.43;;;19.70;98.30;;;;;;4056492;29;20515;-82
2021/07/09 18:09:06;;;;;;;7.57;6.57;;;19.80;98.30;;;;;;4064869;29;20475;-83
2021/07/09 18:11:10;;;;;;;7.43;6.77;;;19.70;98.30;;;;;;4063382;29;20482;-83
2021/07/09 18:13:15;;;;;;;7.07;6.37;;;19.70;98.30;;;;;;4062311;29;20478;-82
2021/07/09 18:15:17;;;;;;;7.40;6.70;;;19.70;98.30;;;;;;4064491;29;20492;-83
2021/07/09 18:17:25;;;;;;;7.83;7.03;;;19.60;98.30;;;;;;4064746;29;20469;-82
2021/07/09 18:19:28;;;;;;;8.93;8.03;;;19.60;98.30;;;;;;4067765;29;20481;-82
2021/07/09 18:21:31;;;;;;;9.23;8.27;;;19.60;98.30;;;;;;4065380;29;21011;-81
2021/07/09 18:23:34;;;;;;;8.10;7.30;;;19.60;98.30;;;;;;4063363;29;20964;-81
2021/07/09 18:25:38;;;;;;;9.70;7.90;;;19.70;98.30;;;;;;4061588;29;20850;-82
2021/07/09 18:27:41;;;;;;;12.83;8.23;;;19.80;98.30;;;;;;4067322;29;20843;-81
2021/07/09 18:29:45;;;;;;;10.33;7.77;;;19.80;98.30;;;;;;4060141;29;20466;-82
2021/07/09 18:31:48;;;;;;;9.93;8.70;;;19.80;98.30;;;;;;4059598;29;20963;-82
2021/07/09 18:33:51;;;;;;;10.87;9.70;;;19.80;98.30;;;;;;4061527;29;20474;-82
2021/07/09 18:35:54;;;;;;;11.67;8.80;;;19.80;98.30;;;;;;4058669;29;20499;-82
2021/07/09 18:37:58;;;;;;;10.10;9.17;;;19.90;98.30;;;;;;4058703;29;20471;-82
2021/07/09 18:40:05;;;;;;;11.70;9.87;;;19.90;98.30;;;;;;4065317;29;20506;-82
2021/07/09 18:42:08;;;;;;;11.90;9.43;;;19.90;98.30;;;;;;4062208;29;20500;-82
2021/07/09 18:44:11;;;;;;;11.10;10.00;;;19.90;98.30;;;;;;4062964;29;20541;-82
2021/07/09 18:46:17;;;;;;;12.20;10.83;;;19.90;98.30;;;;;;4065097;29;20476;-82
2021/07/09 18:48:20;;;;;;;13.27;11.17;;;19.80;98.30;;;;;;4065208;29;20471;-81
2021/07/09 18:50:23;;;;;;;13.40;10.50;;;19.60;98.30;;;;;;4065999;29;20504;-82
2021/07/09 18:52:27;;;;;;;12.53;11.27;;;19.60;98.30;;;;;;4061655;29;20492;-81
2021/07/09 18:54:30;;;;;;;14.60;11.93;;;19.70;98.30;;;;;;4067263;29;20463;-82
2021/07/09 18:56:33;;;;;;;14.50;11.37;;;19.80;98.30;;;;;;4065591;29;20498;-82
2021/07/09 18:58:37;;;;;;;13.80;12.40;;;19.70;98.30;;;;;;4059681;29;20480;-82
2021/07/09 19:00:40;;;;;;;15.77;12.80;;;19.60;98.30;;;;;;4064777;29;20474;-82
2021/07/09 19:02:46;;;;;;;15.10;12.43;;;19.50;98.30;;;;;;4064956;29;20532;-81
2021/07/09 19:04:49;;;;;;;20.13;14.23;;;19.50;98.30;;;;;;4066041;29;20463;-82
2021/07/09 19:06:54;;;;;;;23.90;14.67;;;19.60;98.30;;;;;;4064644;29;20474;-82
2021/07/09 19:08:57;;;;;;;17.50;13.50;;;19.50;98.30;;;;;;4066908;29;20515;-82
2021/07/09 19:11:00;;;;;;;20.17;14.57;;;19.60;98.30;;;;;;4068577;29;20511;-81
2021/07/09 19:13:06;;;;;;;18.77;15.00;;;19.60;98.30;;;;;;4067114;29;20484;-82
2021/07/09 19:15:12;;;;;;;20.87;14.70;;;19.60;98.30;;;;;;4063805;29;20491;-82
2021/07/09 19:17:15;;;;;;;19.00;14.80;;;19.60;98.30;;;;;;4071236;29;20484;-82
2021/07/09 19:19:19;;;;;;;18.03;15.00;;;19.50;98.30;;;;;;4059650;29;20473;-82
2021/07/09 19:21:22;;;;;;;17.00;14.67;;;19.50;98.30;;;;;;4064487;29;20508;-82
2021/07/09 19:23:28;;;;;;;20.90;18.53;;;19.50;98.30;;;;;;4058701;29;20964;-81
2021/07/09 19:25:32;;;;;;;22.77;17.13;;;19.40;98.30;;;;;;4068614;29;21027;-82
2021/07/09 19:27:35;;;;;;;22.67;15.43;;;19.40;98.30;;;;;;4064341;29;20471;-83
2021/07/09 19:29:41;;;;;;;20.23;16.17;;;19.40;98.30;;;;;;4062915;29;20468;-82
2021/07/09 19:31:44;;;;;;;19.23;15.20;;;19.40;98.30;;;;;;4062602;29;20489;-82
2021/07/09 19:33:47;;;;;;;17.63;15.43;;;19.40;98.30;;;;;;4060430;29;20482;-82
2021/07/09 19:35:54;;;;;;;21.53;15.97;;;19.40;98.30;;;;;;4059405;29;20492;-83
2021/07/09 19:37:57;;;;;;;17.90;14.67;;;19.30;98.30;;;;;;4054306;29;20460;-82
2021/07/09 19:40:00;;;;;;;22.33;16.13;;;19.30;98.30;;;;;;4061575;29;20585;-81
2021/07/09 19:42:04;;;;;;;18.63;14.90;;;19.30;98.30;;;;;;4061266;29;21180;-83
2021/07/09 19:44:07;;;;;;;22.70;14.90;;;19.40;98.30;;;;;;4062571;29;20528;-82
2021/07/09 19:46:10;;;;;;;17.17;15.20;;;19.40;98.30;;;;;;4067895;29;20951;-82
2021/07/09 19:48:14;;;;;;;19.53;14.17;;;19.50;98.30;;;;;;4066127;29;21019;-82
2021/07/09 19:50:19;;;;;;;19.23;15.30;;;19.50;98.30;;;;;;4064703;29;20475;-81
2021/07/09 19:52:24;;;;;;;17.13;15.23;;;19.40;98.30;;;;;;4062732;29;20505;-83
2021/07/09 19:54:27;;;;;;;15.27;13.67;;;19.50;98.30;;;;;;4061086;29;20597;-81
2021/07/09 19:56:35;;;;;;;18.97;15.03;;;19.50;98.30;;;;;;4065265;29;20480;-81
2021/07/09 19:58:38;;;;;;;19.97;15.60;;;19.50;98.30;;;;;;4057911;29;20847;-80
2021/07/09 20:00:43;;;;;;;22.53;15.30;;;19.40;98.30;;;;;;4065096;29;20475;-80
2021/07/09 20:03:16;;;;;;;16.73;13.97;;;19.40;98.30;;;;;;4067743;29;20495;-81
2021/07/09 20:05:29;;;;;;;24.43;14.70;;;19.30;98.30;;;;;;4064033;29;20475;-82
2021/07/09 20:07:33;;;;;;;27.30;16.30;;;19.30;98.30;;;;;;4065602;29;21140;-82
2021/07/09 20:09:36;;;;;;;18.77;15.47;;;19.40;98.30;;;;;;4064099;29;20481;-82
2021/07/09 20:11:39;;;;;;;17.60;13.77;;;19.40;98.30;;;;;;4065098;29;20499;-82
2021/07/09 20:13:42;;;;;;;16.03;13.90;;;19.40;98.30;;;;;;4066253;29;20506;-82
2021/07/09 20:15:45;;;;;;;21.10;16.03;;;19.30;98.30;;;;;;4066876;29;20471;-82
2021/07/09 20:17:51;;;;;;;18.77;13.73;;;19.40;98.30;;;;;;4066309;29;20578;-82
2021/07/09 20:19:54;;;;;;;20.37;15.00;;;19.30;98.30;;;;;;4066454;29;20528;-81
2021/07/09 20:21:57;;;;;;;21.27;14.80;;;19.40;98.30;;;;;;4066002;29;20492;-82
2021/07/09 20:24:01;;;;;;;19.17;13.70;;;19.30;98.30;;;;;;4060803;29;21029;-82
2021/07/09 20:26:04;;;;;;;20.63;13.67;;;19.30;98.30;;;;;;4061508;29;20487;-82
2021/07/09 20:28:08;;;;;;;19.67;13.87;;;19.30;98.30;;;;;;4059878;29;20470;-82
2021/07/09 20:30:12;;;;;;;19.60;14.63;;;19.20;98.30;;;;;;4060724;29;21227;-82
2021/07/09 20:32:15;;;;;;;17.00;14.10;;;19.20;98.30;;;;;;4056858;29;20507;-82
2021/07/09 20:34:18;;;;;;;20.83;16.03;;;19.20;98.30;;;;;;4064396;29;20967;-82
2021/07/09 20:36:21;;;;;;;16.93;14.73;;;19.20;98.30;;;;;;4058200;29;20487;-82
2021/07/09 20:38:24;;;;;;;23.20;13.97;;;19.10;98.30;;;;;;4064403;29;20535;-81
2021/07/09 20:40:29;;;;;;;17.67;13.10;;;19.20;98.30;;;;;;4058107;29;20484;-82
2021/07/09 20:42:32;;;;;;;18.83;14.10;;;19.20;98.30;;;;;;4061273;29;20503;-81
2021/07/09 20:44:35;;;;;;;20.47;13.57;;;19.10;98.30;;;;;;4061005;29;20959;-82
2021/07/09 20:46:45;;;;;;;17.67;13.87;;;19.10;98.30;;;;;;4060352;29;20505;-82
2021/07/09 20:48:48;;;;;;;18.63;13.17;;;19.10;98.30;;;;;;4060871;29;20487;-81
2021/07/09 20:50:51;;;;;;;16.87;13.10;;;19.10;98.30;;;;;;4063858;29;20475;-81
2021/07/09 20:52:57;;;;;;;19.90;17.63;;;19.10;98.30;;;;;;4064516;29;20585;-81
2021/07/09 20:55:00;;;;;;;21.00;15.80;;;19.10;98.30;;;;;;4063064;29;20539;-82
2021/07/09 20:57:05;;;;;;;28.47;21.03;;;19.10;98.30;;;;;;4063630;29;20514;-82
2021/07/09 20:59:08;;;;;;;20.03;15.07;;;19.20;98.30;;;;;;4063563;29;20487;-81
2021/07/09 21:01:11;;;;;;;16.20;13.10;;;19.10;98.30;;;;;;4064870;29;20476;-81
2021/07/09 21:03:14;;;;;;;20.00;14.30;;;19.10;98.30;;;;;;4065251;29;20475;-81
2021/07/09 21:05:18;;;;;;;17.70;13.53;;;19.10;98.30;;;;;;4064114;29;20824;-81
2021/07/09 21:07:20;;;;;;;18.83;14.07;;;19.10;98.30;;;;;;4062847;29;21453;-81
2021/07/09 21:09:24;;;;;;;15.60;13.80;;;19.00;98.30;;;;;;4063063;29;20477;-81
2021/07/09 21:11:27;;;;;;;16.50;13.50;;;19.00;98.30;;;;;;4063321;29;21086;-81
2021/07/09 21:13:33;;;;;;;17.43;13.30;;;19.00;98.30;;;;;;4068092;29;20475;-82
2021/07/09 21:15:38;;;;;;;19.80;14.20;;;19.00;98.30;;;;;;4063899;29;20464;-82
2021/07/09 21:17:41;;;;;;;22.77;14.23;;;18.90;98.30;;;;;;4061912;29;20488;-82
2021/07/09 21:19:44;;;;;;;21.03;13.90;;;18.90;98.30;;;;;;4065173;29;20507;-80
2021/07/09 21:21:47;;;;;;;19.10;13.00;;;19.00;98.30;;;;;;4063076;29;20613;-80
2021/07/09 21:23:53;;;;;;;15.90;13.80;;;18.90;98.30;;;;;;4060848;29;20826;-81
2021/07/09 21:25:56;;;;;;;18.40;13.30;;;18.80;98.30;;;;;;4061068;29;20471;-81
2021/07/09 21:28:00;;;;;;;17.43;13.50;;;18.80;98.30;;;;;;4060196;29;20838;-79
2021/07/09 21:30:06;;;;;;;16.73;13.23;;;18.80;98.30;;;;;;4059835;29;20472;-81
2021/07/09 21:32:08;;;;;;;17.40;14.50;;;18.80;98.30;;;;;;4060068;29;20845;-80
2021/07/09 21:34:13;;;;;;;20.17;14.30;;;18.70;98.30;;;;;;4059081;29;20486;-80
2021/07/09 21:36:16;;;;;;;18.63;13.20;;;18.80;98.30;;;;;;4059021;29;20480;-80
2021/07/09 21:38:19;;;;;;;16.87;13.53;;;18.90;98.30;;;;;;4058664;29;20933;-80
2021/07/09 21:40:23;;;;;;;16.93;13.60;;;18.90;98.30;;;;;;4058695;29;20497;-80
2021/07/09 21:42:26;;;;;;;18.00;13.10;;;18.80;98.30;;;;;;4059381;29;20494;-80
2021/07/09 21:44:29;;;;;;;19.63;13.03;;;18.80;98.30;;;;;;4057962;29;20476;-81
2021/07/09 21:46:35;;;;;;;21.67;16.83;;;18.70;98.30;;;;;;4059441;29;20858;-79
2021/07/09 21:48:38;;;;;;;19.13;13.97;;;18.70;98.30;;;;;;4060511;29;20471;-82
2021/07/09 21:50:41;;;;;;;22.40;14.70;;;18.70;98.30;;;;;;4060328;29;20471;-80
2021/07/09 21:52:44;;;;;;;20.10;14.20;;;18.70;98.30;;;;;;4059910;29;21025;-80
2021/07/09 21:54:47;;;;;;;18.90;15.30;;;18.70;98.30;;;;;;4061506;29;20485;-80
2021/07/09 21:56:51;;;;;;;18.97;14.77;;;18.70;98.30;;;;;;4059594;29;20972;-80
2021/07/09 21:58:54;;;;;;;22.70;16.60;;;18.60;98.30;;;;;;4060774;29;20849;-80
2021/07/09 22:00:56;;;;;;;24.90;16.13;;;18.60;98.30;;;;;;4059695;29;20462;-80
2021/07/09 22:03:01;;;;;;;22.73;16.87;;;18.50;98.30;;;;;;4059223;29;20479;-80
2021/07/09 22:05:05;;;;;;;22.20;15.90;;;18.60;98.30;;;;;;4059965;29;20904;-80
2021/07/09 22:07:07;;;;;;;27.37;17.97;;;18.60;98.30;;;;;;4060240;29;20463;-80
2021/07/09 22:09:10;;;;;;;20.30;16.63;;;18.70;98.30;;;;;;4058644;29;20474;-82
2021/07/09 22:11:13;;;;;;;21.97;17.33;;;18.70;98.30;;;;;;4059133;29;20483;-81
2021/07/09 22:13:16;;;;;;;21.63;17.10;;;18.70;98.30;;;;;;4060640;29;20490;-81
2021/07/09 22:15:19;;;;;;;22.70;16.37;;;18.70;98.30;;;;;;4060055;29;21001;-81
2021/07/09 22:17:22;;;;;;;24.97;17.33;;;18.70;98.30;;;;;;4057108;29;20475;-82
2021/07/09 22:19:27;;;;;;;24.20;17.23;;;18.60;98.30;;;;;;4058543;29;20496;-82
2021/07/09 22:21:30;;;;;;;23.23;18.03;;;18.60;98.30;;;;;;4060175;29;20528;-81
2021/07/09 22:23:33;;;;;;;22.43;17.07;;;18.40;98.30;;;;;;4064117;29;20485;-81
2021/07/09 22:25:36;;;;;;;20.67;15.93;;;18.30;98.30;;;;;;4055607;29;21155;-81
2021/07/09 22:27:40;;;;;;;25.73;17.03;;;18.30;98.30;;;;;;4057999;29;20998;-81
2021/07/09 22:29:43;;;;;;;24.17;17.53;;;18.30;98.30;;;;;;4058824;29;20471;-81
2021/07/09 22:31:46;;;;;;;26.70;17.13;;;18.30;98.30;;;;;;4058028;29;20567;-81
2021/07/09 22:33:49;;;;;;;26.30;17.90;;;18.30;98.30;;;;;;4057875;29;20514;-81
2021/07/09 22:35:53;;;;;;;25.53;17.10;;;18.30;98.30;;;;;;4056106;29;20488;-81
2021/07/09 22:37:57;;;;;;;26.83;18.20;;;18.30;98.30;;;;;;4056568;29;20479;-81
2021/07/09 22:40:00;;;;;;;23.20;15.63;;;18.30;98.30;;;;;;4055290;29;20472;-81
2021/07/09 22:42:03;;;;;;;22.70;16.77;;;18.20;98.30;;;;;;4057548;29;20490;-82
2021/07/09 22:44:06;;;;;;;22.17;15.23;;;18.30;98.30;;;;;;4057601;29;20467;-81
2021/07/09 22:46:09;;;;;;;26.50;16.73;;;18.20;98.30;;;;;;4056783;29;20479;-81
2021/07/09 22:48:12;;;;;;;20.80;15.77;;;18.20;98.30;;;;;;4058316;29;20475;-81
2021/07/09 22:50:15;;;;;;;22.13;17.00;;;18.20;98.30;;;;;;4057189;29;20971;-81
2021/07/09 22:52:19;;;;;;;19.90;15.50;;;18.20;98.30;;;;;;4057396;29;20505;-81
2021/07/09 22:54:22;;;;;;;22.10;16.70;;;18.10;98.30;;;;;;4057532;29;20480;-81
2021/07/09 22:56:25;;;;;;;22.50;16.97;;;18.00;98.30;;;;;;4057799;29;20479;-81
2021/07/09 22:58:28;;;;;;;26.83;16.10;;;18.10;98.30;;;;;;4056733;29;20499;-81
2021/07/09 23:00:31;;;;;;;21.83;16.43;;;18.10;98.30;;;;;;4055585;29;20474;-81
2021/07/09 23:02:34;;;;;;;22.17;17.07;;;18.20;98.30;;;;;;4058350;29;20992;-81
2021/07/09 23:04:37;;;;;;;22.90;16.43;;;18.30;98.30;;;;;;4057921;29;20880;-81
2021/07/09 23:06:41;;;;;;;26.83;17.23;;;18.30;98.30;;;;;;4059669;29;20466;-81
2021/07/09 23:08:45;;;;;;;20.77;16.73;;;18.30;98.30;;;;;;4060047;29;20479;-81
2021/07/09 23:10:48;;;;;;;18.20;15.70;;;18.30;98.30;;;;;;4061141;29;20561;-80
2021/07/09 23:12:51;;;;;;;22.87;17.00;;;18.30;98.30;;;;;;4060914;29;20503;-81
2021/07/09 23:14:54;;;;;;;22.13;16.27;;;18.40;98.30;;;;;;4060588;29;20490;-81
2021/07/09 23:16:57;;;;;;;22.93;16.30;;;18.40;98.30;;;;;;4060468;29;21064;-81
2021/07/09 23:19:00;;;;;;;20.60;14.73;;;18.50;98.30;;;;;;4060229;29;20522;-81
2021/07/09 23:21:03;;;;;;;24.23;17.73;;;18.40;98.30;;;;;;4060569;29;20482;-82
2021/07/09 23:23:07;;;;;;;21.47;16.47;;;18.30;98.30;;;;;;4061553;29;20506;-81
2021/07/09 23:25:13;;;;;;;24.57;16.60;;;18.30;98.30;;;;;;4059565;29;20472;-81
2021/07/09 23:27:16;;;;;;;21.07;16.17;;;18.30;98.30;;;;;;4060335;29;20487;-81
2021/07/09 23:29:19;;;;;;;23.20;16.20;;;18.30;98.30;;;;;;4060312;29;20530;-81
2021/07/09 23:31:22;;;;;;;20.73;16.27;;;18.30;98.30;;;;;;4060475;29;20501;-81
2021/07/09 23:33:26;;;;;;;20.27;14.60;;;18.30;98.30;;;;;;4059927;29;20475;-81
2021/07/09 23:35:29;;;;;;;22.50;15.97;;;18.30;98.30;;;;;;4059182;29;20500;-81
2021/07/09 23:37:32;;;;;;;21.20;16.60;;;18.30;98.30;;;;;;4059452;29;20490;-81
2021/07/09 23:39:36;;;;;;;20.37;16.20;;;18.30;98.30;;;;;;4059015;29;20980;-81
2021/07/09 23:41:41;;;;;;;22.33;15.40;;;18.30;98.30;;;;;;4059287;29;20495;-81
2021/07/09 23:43:44;;;;;;;18.50;14.90;;;18.10;98.30;;;;;;4059172;29;20474;-81
2021/07/09 23:45:47;;;;;;;20.90;15.00;;;18.00;98.30;;;;;;4059745;29;20866;-81
2021/07/09 23:47:50;;;;;;;22.03;17.03;;;18.10;98.30;;;;;;4060605;29;20475;-81
2021/07/09 23:49:53;;;;;;;23.00;15.93;;;18.10;98.30;;;;;;4060131;29;20479;-81
2021/07/09 23:51:56;;;;;;;25.13;15.47;;;18.00;98.30;;;;;;4059013;29;20507;-81
2021/07/09 23:53:59;;;;;;;22.77;16.07;;;17.90;98.30;;;;;;4058338;29;20487;-81
2021/07/09 23:56:02;;;;;;;22.00;15.70;;;17.90;98.30;;;;;;4059732;29;20478;-81
2021/07/09 23:58:07;;;;;;;22.20;16.60;;;17.90;98.30;;;;;;4059503;29;20482;-81
